SBSN/STM METAR and TAF weather

Enter ICAO airport designator
Station Type Date Time Source
SBSN METAR 2022/12/02 23:00 UTC NOAA

SBSN 022300Z 08008KT 9999 FEW013 BKN100 25/24 Q1006


Station Type Date Time Source
SBSN Decoded METAR 2022/12/02 23:00 UTC NOAA

Santarem-Aeroporto, Brazil (SBSN) 02-26S 054-43W 72M
Dec 02, 2022 - 06:00 PM EST / 2022.12.02 2300 UTC
Wind: from the E (080 degrees) at 9 MPH (8 KT):0
Visibility: greater than 7 mile(s):0
Sky conditions: mostly cloudy
Temperature: 77 F (25 C)
Dew Point: 75 F (24 C)
Relative Humidity: 94%
Pressure (altimeter): 29.71 in. Hg (1006 hPa)
ob: SBSN 022300Z 08008KT 9999 FEW013 BKN100 25/24 Q1006
cycle: 23

Station Type Date Time Source
SBSN TAF 2022/12/02 18:57 UTC NOAA

TAF SBSN 021654Z 0218/0318 10005KT 9999 SCT015 FEW020TCU TX29/0219Z TN24/0309Z
BECMG 0221/0223 16005KT FEW015
BECMG 0304/0306 10007KT 8000 TS SCT015 FEW030CB
TEMPO 0310/0315 5000 TSRA SCT010 FEW023CB
BECMG 0315/0317 14003KT RA BKN015
RMK PFV

Example: see airport list